Time;durP1;ratioP1;P1;durP2;ratioP2;P2;SDS_P1;SDS_P2;PMS_P1;PMS_P2;Temp;Humidity;BMP_temperature;BMP_pressure;BME280_temperature;BME280_humidity;BME280_pressure;Samples;Min_cycle;Max_cycle;Signal;HPM_P1;HPM_P2
2021/12/19 00:02:23;;;;;;;6.63;2.70;;;;;;;7.81;100.00;103769.44;5114704;28;20423;-35
2021/12/19 00:10:23;;;;;;;4.40;2.08;;;;;;;7.82;100.00;103766.47;5106796;28;20413;-35
2021/12/19 00:12:52;;;;;;;3.35;1.42;;;;;;;7.81;100.00;103770.31;5106231;28;20052;-39
2021/12/19 00:15:20;;;;;;;2.80;1.27;;;;;;;7.79;100.00;103774.41;5114358;28;20043;-35
2021/12/19 00:17:48;;;;;;;3.92;0.93;;;;;;;7.76;100.00;103767.31;5113762;28;20056;-36
2021/12/19 00:20:16;;;;;;;1.75;0.50;;;;;;;7.72;100.00;103766.03;5114221;28;20131;-38
2021/12/19 00:23:03;;;;;;;1.50;0.55;;;;;;;7.68;100.00;103767.50;5105898;28;20051;-31
2021/12/19 00:25:32;;;;;;;2.15;0.60;;;;;;;7.67;100.00;103763.00;5113485;28;20058;-35
2021/12/19 00:28:00;;;;;;;2.80;0.75;;;;;;;7.67;100.00;103762.16;5114146;28;20047;-34
2021/12/19 00:30:28;;;;;;;1.13;0.50;;;;;;;7.67;100.00;103760.22;5113849;28;20050;-40
2021/12/19 00:32:55;;;;;;;2.38;0.80;;;;;;;7.68;100.00;103759.16;5113518;28;20048;-32
2021/12/19 00:35:23;;;;;;;1.80;0.88;;;;;;;7.69;100.00;103752.53;5113866;28;20131;-35
2021/12/19 00:37:51;;;;;;;1.83;0.80;;;;;;;7.71;100.00;103753.19;5113821;28;20043;-31
2021/12/19 00:40:20;;;;;;;3.28;0.90;;;;;;;7.72;100.00;103749.34;5113432;28;20060;-35
2021/12/19 00:42:52;;;;;;;3.83;1.55;;;;;;;7.73;100.00;103751.06;5113797;28;20134;-32
2021/12/19 00:45:27;;;;;;;2.60;1.30;;;;;;;7.74;100.00;103740.81;5113993;28;20143;-36
2021/12/19 00:47:55;;;;;;;3.30;1.20;;;;;;;7.72;100.00;103738.22;5113029;28;20048;-35
2021/12/19 00:50:24;;;;;;;3.10;0.77;;;;;;;7.73;100.00;103739.94;5113444;28;20066;-31
2021/12/19 00:52:52;;;;;;;2.42;0.70;;;;;;;7.72;100.00;103743.78;5113048;28;20051;-32
2021/12/19 00:55:23;;;;;;;3.50;0.90;;;;;;;7.72;100.00;103734.59;5113775;28;20051;-32
2021/12/19 00:57:52;;;;;;;2.95;1.02;;;;;;;7.70;100.00;103729.25;5110360;28;20047;-31
2021/12/19 01:00:23;;;;;;;2.00;1.00;;;;;;;7.69;100.00;103727.53;5096039;28;20075;-34
2021/12/19 01:02:53;;;;;;;1.58;0.70;;;;;;;7.69;100.00;103730.31;5113365;28;20115;-38
2021/12/19 01:05:21;;;;;;;2.33;0.82;;;;;;;7.70;100.00;103723.69;5113568;28;20138;-34
2021/12/19 01:07:49;;;;;;;4.25;1.30;;;;;;;7.72;100.00;103726.25;5112770;28;20056;-32
2021/12/19 01:10:17;;;;;;;2.40;0.77;;;;;;;7.71;100.00;103719.84;5113508;27;20445;-34
2021/12/19 01:12:45;;;;;;;1.35;0.50;;;;;;;7.68;100.00;103713.84;5111828;28;20469;-32
2021/12/19 01:15:17;;;;;;;2.95;0.70;;;;;;;7.65;100.00;103715.13;5113018;28;20057;-34
2021/12/19 01:17:45;;;;;;;2.17;1.00;;;;;;;7.61;100.00;103711.03;5113368;28;20047;-35
2021/12/19 01:20:18;;;;;;;1.75;0.90;;;;;;;7.60;100.00;103701.84;5113334;28;20380;-38
2021/12/19 01:22:46;;;;;;;2.20;1.10;;;;;;;7.60;100.00;103700.97;5112137;28;20519;-34
2021/12/19 01:25:14;;;;;;;2.83;1.33;;;;;;;7.61;100.00;103698.00;5113203;28;20050;-34
2021/12/19 01:27:42;;;;;;;4.95;1.98;;;;;;;7.62;100.00;103709.97;5112762;28;20043;-35
2021/12/19 01:30:11;;;;;;;5.30;1.60;;;;;;;7.61;100.00;103711.03;5112549;28;20047;-31
2021/12/19 01:32:44;;;;;;;2.50;1.27;;;;;;;7.60;100.00;103709.31;5112884;28;20050;-33
2021/12/19 01:35:13;;;;;;;2.20;1.05;;;;;;;7.59;100.00;103710.41;5101358;28;20404;-36
2021/12/19 01:37:41;;;;;;;1.95;0.77;;;;;;;7.58;100.00;103712.34;5111921;28;20433;-37
2021/12/19 01:40:10;;;;;;;3.40;1.20;;;;;;;7.58;100.00;103711.47;5112526;28;20091;-38
2021/12/19 01:42:40;;;;;;;4.60;1.42;;;;;;;7.57;100.00;103707.00;5112039;28;20051;-38
2021/12/19 01:45:10;;;;;;;2.65;0.95;;;;;;;7.57;100.00;103709.75;5112823;28;20134;-33
2021/12/19 01:47:40;;;;;;;2.38;0.60;;;;;;;7.55;100.00;103703.56;5112713;28;20043;-37
2021/12/19 01:50:10;;;;;;;1.83;0.50;;;;;;;7.54;100.00;103710.19;5111818;28;20039;-33
2021/12/19 01:52:38;;;;;;;3.25;1.13;;;;;;;7.53;100.00;103705.69;5112462;28;20078;-36
2021/12/19 01:55:06;;;;;;;2.22;1.00;;;;;;;7.52;100.00;103702.06;5112149;28;20069;-38
2021/12/19 01:57:35;;;;;;;1.55;0.40;;;;;;;7.52;100.00;103702.06;5111772;28;20047;-38
2021/12/19 02:00:05;;;;;;;3.05;0.70;;;;;;;7.52;100.00;103706.75;5112411;28;20144;-32
2021/12/19 02:02:33;;;;;;;2.88;0.68;;;;;;;7.49;100.00;103699.69;5112447;28;20048;-34
2021/12/19 02:05:03;;;;;;;1.73;0.40;;;;;;;7.47;100.00;103696.25;5111584;28;20043;-38
2021/12/19 02:07:31;;;;;;;1.58;0.40;;;;;;;7.46;100.00;103682.56;5094810;28;20120;-35
2021/12/19 02:09:59;;;;;;;2.17;0.70;;;;;;;7.46;100.00;103690.91;5112309;28;20386;-34
2021/12/19 02:12:27;;;;;;;2.22;1.00;;;;;;;7.45;100.00;103681.72;5111388;28;20135;-35
2021/12/19 02:14:54;;;;;;;6.88;1.33;;;;;;;7.44;100.00;103680.00;5112070;28;20522;-41
2021/12/19 02:17:22;;;;;;;6.22;1.80;;;;;;;7.43;100.00;103675.50;5111555;28;20381;-35
2021/12/19 02:19:50;;;;;;;3.63;1.42;;;;;;;7.45;100.00;103683.63;5111704;28;20396;-33
2021/12/19 02:22:19;;;;;;;2.67;0.93;;;;;;;7.44;100.00;103676.38;5112254;28;20051;-37
2021/12/19 02:24:47;;;;;;;1.17;0.55;;;;;;;7.39;100.00;103681.72;5100609;28;20432;-35
2021/12/19 02:27:15;;;;;;;1.80;0.30;;;;;;;7.38;100.00;103675.31;5112121;28;20051;-39
2021/12/19 02:29:43;;;;;;;2.30;0.40;;;;;;;7.35;100.00;103675.72;5111673;28;20391;-34
2021/12/19 02:32:12;;;;;;;1.27;0.40;;;;;;;7.35;100.00;103674.84;5111081;28;20094;-40
2021/12/19 02:34:43;;;;;;;2.78;0.85;;;;;;;7.34;100.00;103667.59;5111697;28;20054;-37
2021/12/19 02:37:23;;;;;;;3.60;1.48;;;;;;;7.33;100.00;103657.53;5111923;28;20040;-30
2021/12/19 02:40:21;;;;;;;2.95;1.00;;;;;;;7.31;100.00;103657.75;5110898;28;20046;-37
2021/12/19 02:48:27;;;;;;;3.00;0.40;;;;;;;7.26;100.00;103654.72;5111973;28;20039;-37
2021/12/19 02:50:56;;;;;;;2.45;0.70;;;;;;;7.27;100.00;103645.34;5111042;28;20496;-40
2021/12/19 02:53:29;;;;;;;1.75;0.30;;;;;;;7.26;100.00;103651.97;5110619;28;20480;-38
2021/12/19 02:55:59;;;;;;;1.23;0.30;;;;;;;7.23;100.00;103646.81;5111594;28;20491;-36
2021/12/19 02:58:26;;;;;;;1.65;0.35;;;;;;;7.23;100.00;103638.47;5111744;28;20055;-39
2021/12/19 03:00:55;;;;;;;1.92;0.22;;;;;;;7.22;100.00;103636.78;5110423;28;20460;-38
2021/12/19 03:03:22;;;;;;;0.43;0.10;;;;;;;7.20;100.00;103633.34;5111733;28;20056;-37
2021/12/19 03:05:50;;;;;;;1.92;0.20;;;;;;;7.18;100.00;103628.03;5111623;28;20503;-35
2021/12/19 03:08:19;;;;;;;1.63;0.40;;;;;;;7.16;100.00;103624.59;5111072;28;20040;-33
2021/12/19 03:17:55;;;;;;;0.73;0.40;;;;;;;7.15;100.00;103619.25;5100184;28;20052;-39
2021/12/19 03:19:07;;;;;;;1.40;0.20;;;;;;;7.12;100.00;103614.09;5096966;28;20416;-35
2021/12/19 03:21:35;;;;;;;0.95;0.13;;;;;;;7.15;100.00;103619.25;5106919;28;20527;-35
2021/12/19 03:24:03;;;;;;;2.65;0.30;;;;;;;7.16;100.00;103609.84;5111596;28;20054;-33
2021/12/19 03:26:31;;;;;;;1.48;0.20;;;;;;;7.17;100.00;103606.03;5110678;28;20051;-44
2021/12/19 03:29:00;;;;;;;1.38;0.30;;;;;;;7.18;100.00;103607.72;5110755;28;20505;-35
2021/12/19 03:31:28;;;;;;;1.90;0.50;;;;;;;7.20;100.00;103602.78;5111177;28;20058;-36
2021/12/19 03:33:55;;;;;;;0.82;0.30;;;;;;;7.19;100.00;103596.38;5111377;28;20036;-37
2021/12/19 03:36:23;;;;;;;3.67;0.52;;;;;;;7.20;100.00;103595.31;5110349;28;20075;-35
2021/12/19 03:38:57;;;;;;;2.67;0.35;;;;;;;7.22;100.00;103593.19;5107772;28;20043;-32
2021/12/19 03:41:33;;;;;;;0.70;0.25;;;;;;;7.23;100.00;103585.72;5111362;28;20042;-32
2021/12/19 03:44:05;;;;;;;1.92;0.20;;;;;;;7.21;100.00;103573.97;5108211;28;20385;-40
2021/12/19 03:46:33;;;;;;;2.97;0.30;;;;;;;7.17;100.00;103579.09;5111277;28;20044;-42
2021/12/19 03:49:01;;;;;;;3.58;0.30;;;;;;;7.16;100.00;103571.84;5110428;28;20284;-36
2021/12/19 03:51:29;;;;;;;1.52;0.40;;;;;;;7.16;100.00;103574.63;5110872;28;20043;-33
2021/12/19 03:53:56;;;;;;;2.17;0.32;;;;;;;7.17;100.00;103556.03;5110996;28;20056;-36
2021/12/19 03:56:25;;;;;;;2.40;0.30;;;;;;;7.18;100.00;103557.75;5110334;28;20048;-35
2021/12/19 03:58:53;;;;;;;2.22;0.35;;;;;;;7.21;100.00;103560.94;5107481;28;20404;-34
2021/12/19 04:01:22;;;;;;;2.30;0.30;;;;;;;7.23;100.00;103550.47;5094888;28;20420;-33
2021/12/19 04:03:50;;;;;;;1.40;0.30;;;;;;;7.26;100.00;103554.75;5113630;28;20039;-36
2021/12/19 04:06:18;;;;;;;1.10;0.25;;;;;;;7.27;100.00;103553.69;5114881;28;20046;-31
2021/12/19 04:08:47;;;;;;;4.07;0.65;;;;;;;7.31;100.00;103545.78;5110857;28;20056;-34
2021/12/19 04:11:15;;;;;;;2.17;0.40;;;;;;;7.32;100.00;103541.94;5095743;28;20058;-33
2021/12/19 04:13:43;;;;;;;2.83;0.55;;;;;;;7.34;100.00;103545.38;5114469;28;20039;-33
2021/12/19 04:16:11;;;;;;;3.55;0.47;;;;;;;7.35;100.00;103535.97;5114483;28;20043;-35
2021/12/19 04:18:40;;;;;;;4.13;0.50;;;;;;;7.35;100.00;103536.84;5113279;28;20043;-35
2021/12/19 04:21:08;;;;;;;4.75;0.45;;;;;;;7.34;100.00;103540.66;5114578;28;20043;-32
2021/12/19 04:23:36;;;;;;;5.00;0.38;;;;;;;7.34;100.00;103546.22;5114115;28;20039;-36
2021/12/19 04:26:04;;;;;;;2.88;0.40;;;;;;;7.33;100.00;103540.88;5113688;28;20055;-37
2021/12/19 04:28:32;;;;;;;1.90;0.30;;;;;;;7.33;100.00;103532.56;5113964;28;20055;-43
2021/12/19 04:31:00;;;;;;;3.65;0.40;;;;;;;7.31;100.00;103529.97;5102208;28;20570;-37
2021/12/19 04:33:29;;;;;;;3.25;0.40;;;;;;;7.32;100.00;103541.94;5113871;28;20409;-41
2021/12/19 04:36:01;;;;;;;2.58;0.47;;;;;;;7.32;100.00;103539.16;5114365;28;20047;-40
2021/12/19 04:42:16;;;;;;;1.63;0.30;;;;;;;7.26;100.00;103540.88;5103718;28;20055;-31
2021/12/19 04:50:55;;;;;;;2.15;0.35;;;;;;;7.24;100.00;103548.56;5113490;28;20035;-33
2021/12/19 04:53:31;;;;;;;3.95;0.60;;;;;;;7.17;100.00;103544.94;5097255;28;20055;-39
2021/12/19 04:56:19;;;;;;;2.13;0.20;;;;;;;7.14;100.00;103534.22;5112492;28;20048;-35
2021/12/19 04:59:25;;;;;;;4.15;0.40;;;;;;;7.12;100.00;103531.66;5113507;28;20089;-35
2021/12/19 05:02:11;;;;;;;2.13;0.40;;;;;;;7.09;100.00;103523.75;5112487;28;20127;-37
2021/12/19 05:05:17;;;;;;;3.17;0.30;;;;;;;7.11;100.00;103529.09;5112358;28;20043;-31
2021/12/19 05:16:03;;;;;;;2.60;0.32;;;;;;;7.09;100.00;103517.34;5112214;28;20043;-30
2021/12/19 05:18:34;;;;;;;2.75;0.32;;;;;;;7.11;100.00;103516.06;5112177;28;20047;-35
2021/12/19 05:21:07;;;;;;;2.92;0.40;;;;;;;7.14;100.00;103515.66;5111683;28;20044;-31
2021/12/19 05:23:51;;;;;;;;;;;;;;;7.12;100.00;103515.00;5114304;28;20051;-40
2021/12/19 05:26:20;;;;;;;2.35;0.50;;;;;;;7.13;100.00;103515.88;5112920;28;19984;-35
2021/12/19 05:28:48;;;;;;;2.85;0.52;;;;;;;7.18;100.00;103508.63;5112210;28;20054;-38
2021/12/19 05:31:16;;;;;;;9.23;0.70;;;;;;;7.20;100.00;103512.00;5112455;28;20118;-36
2021/12/19 05:33:45;;;;;;;2.28;0.40;;;;;;;7.22;100.00;103509.03;5113246;28;20421;-35
2021/12/19 05:47:12;;;;;;;5.82;0.50;;;;;;;7.21;100.00;103502.63;5112494;28;20051;-37
2021/12/19 05:49:40;;;;;;;4.38;0.70;;;;;;;7.21;100.00;103501.75;5111900;28;20511;-38
2021/12/19 05:52:08;;;;;;;3.33;0.40;;;;;;;7.17;100.00;103503.28;5112199;28;20055;-32
2021/12/19 05:54:36;;;;;;;4.72;0.40;;;;;;;7.12;100.00;103506.69;5112698;28;20064;-37
2021/12/19 05:57:05;;;;;;;2.00;0.30;;;;;;;7.11;100.00;103520.78;5110861;28;20412;-41
2021/12/19 05:59:33;;;;;;;2.83;0.40;;;;;;;7.10;100.00;103521.84;5112629;28;20058;-34
2021/12/19 06:02:01;;;;;;;3.90;0.57;;;;;;;7.09;100.00;103522.91;5111943;28;20043;-35
2021/12/19 06:04:29;;;;;;;2.80;0.32;;;;;;;7.08;100.00;103516.50;5111567;28;20166;-40
2021/12/19 06:06:57;;;;;;;6.20;0.50;;;;;;;7.09;100.00;103515.44;5111346;28;20051;-35
2021/12/19 06:09:25;;;;;;;2.55;0.30;;;;;;;7.08;100.00;103510.94;5111836;28;20048;-37
2021/12/19 06:11:52;;;;;;;3.65;0.32;;;;;;;7.07;100.00;103500.91;5111883;28;20036;-33
2021/12/19 06:14:22;;;;;;;4.30;0.40;;;;;;;7.08;100.00;103507.31;5112611;28;20039;-35
2021/12/19 06:16:50;;;;;;;6.55;0.60;;;;;;;7.06;100.00;103501.97;5111057;28;20047;-35
2021/12/19 06:19:18;;;;;;;4.78;0.57;;;;;;;7.09;100.00;103501.53;5111926;28;20040;-37
2021/12/19 06:21:45;;;;;;;6.88;1.02;;;;;;;7.10;100.00;103488.50;5111890;28;20093;-35
2021/12/19 06:24:13;;;;;;;4.28;0.68;;;;;;;7.12;100.00;103490.03;5110630;28;20066;-39
2021/12/19 06:26:41;;;;;;;6.43;0.93;;;;;;;7.15;100.00;103503.47;5111926;28;20046;-35
2021/12/19 06:29:09;;;;;;;6.38;1.05;;;;;;;7.19;100.00;103504.75;5111640;28;20514;-40
2021/12/19 06:31:38;;;;;;;5.38;0.90;;;;;;;7.21;100.00;103494.28;5111081;28;20032;-34
2021/12/19 06:34:06;;;;;;;10.82;1.70;;;;;;;7.22;100.00;103492.34;5108462;28;20051;-32
2021/12/19 06:36:34;;;;;;;8.73;1.60;;;;;;;7.20;100.00;103481.47;5111963;28;20040;-33
2021/12/19 06:39:02;;;;;;;5.75;1.50;;;;;;;7.23;100.00;103488.53;5110851;28;20079;-35
2021/12/19 06:41:30;;;;;;;7.88;1.60;;;;;;;7.23;100.00;103483.81;5111348;28;20040;-37
2021/12/19 06:43:58;;;;;;;8.18;1.45;;;;;;;7.24;100.00;103474.41;5107938;28;20488;-41
2021/12/19 06:46:26;;;;;;;6.93;1.70;;;;;;;7.26;100.00;103480.63;5110936;28;20067;-34
2021/12/19 06:48:56;;;;;;;11.02;2.40;;;;;;;7.29;100.00;103478.50;5111052;28;20049;-36
2021/12/19 06:51:23;;;;;;;11.10;2.58;;;;;;;7.30;100.00;103482.97;5111451;28;20047;-35
2021/12/19 06:53:51;;;;;;;14.15;3.25;;;;;;;7.32;100.00;103475.28;5110608;28;20050;-37
2021/12/19 06:56:19;;;;;;;9.65;2.65;;;;;;;7.31;100.00;103484.69;5111697;28;20051;-36
2021/12/19 06:58:47;;;;;;;8.32;2.97;;;;;;;7.31;100.00;103473.56;5110512;28;20051;-33
2021/12/19 07:01:17;;;;;;;11.23;3.20;;;;;;;7.29;100.00;103473.78;5111908;28;20057;-36
2021/12/19 07:03:45;;;;;;;7.93;2.70;;;;;;;7.28;100.00;103479.56;5111139;28;20067;-37
2021/12/19 07:06:19;;;;;;;11.90;2.60;;;;;;;7.28;100.00;103465.66;5111138;28;20057;-35
2021/12/19 07:08:47;;;;;;;8.93;2.70;;;;;;;7.25;100.00;103470.56;5111252;28;20046;-36
2021/12/19 07:11:15;;;;;;;9.50;3.03;;;;;;;7.25;100.00;103470.56;5111331;28;20051;-35
2021/12/19 07:13:43;;;;;;;7.53;3.03;;;;;;;7.25;100.00;103466.94;5110292;28;20079;-37
2021/12/19 07:16:10;;;;;;;9.45;2.40;;;;;;;7.26;100.00;103472.28;5110897;28;20062;-36
2021/12/19 07:18:38;;;;;;;9.55;2.53;;;;;;;7.28;100.00;103474.00;5111289;28;20054;-33
2021/12/19 07:21:07;;;;;;;6.60;2.13;;;;;;;7.28;100.00;103465.66;5109528;28;20126;-42
2021/12/19 07:23:36;;;;;;;7.53;2.28;;;;;;;7.26;100.00;103461.19;5111172;28;20396;-33
2021/12/19 07:26:05;;;;;;;6.75;2.80;;;;;;;7.25;100.00;103465.03;5110464;28;20055;-38
2021/12/19 07:28:33;;;;;;;9.05;2.50;;;;;;;7.25;100.00;103464.16;5109825;28;20044;-34
2021/12/19 07:31:01;;;;;;;9.15;2.00;;;;;;;7.25;100.00;103466.94;5110453;28;20043;-32
2021/12/19 07:33:28;;;;;;;7.18;1.70;;;;;;;7.26;100.00;103469.50;5110189;28;20055;-30
2021/12/19 07:35:59;;;;;;;11.02;2.30;;;;;;;7.25;100.00;103467.81;5109010;28;20074;-31
2021/12/19 07:38:32;;;;;;;10.35;1.90;;;;;;;7.25;100.00;103462.25;5113032;28;20217;-38
2021/12/19 07:41:02;;;;;;;10.20;2.10;;;;;;;7.23;100.00;103458.81;5113083;28;20047;-35
2021/12/19 07:43:30;;;;;;;7.88;1.70;;;;;;;7.21;100.00;103463.72;5113980;28;20043;-33
2021/12/19 07:45:58;;;;;;;5.75;1.92;;;;;;;7.22;100.00;103456.25;5113348;28;20050;-34
2021/12/19 07:48:25;;;;;;;7.90;1.67;;;;;;;7.23;100.00;103453.28;5113016;28;20051;-34
2021/12/19 07:50:54;;;;;;;8.35;2.33;;;;;;;7.24;100.00;103454.13;5113342;28;20047;-35
2021/12/19 07:53:21;;;;;;;9.00;2.25;;;;;;;7.25;100.00;103453.91;5113000;28;20055;-40
2021/12/19 07:55:50;;;;;;;6.35;1.83;;;;;;;7.27;100.00;103453.69;5112579;28;20397;-33
2021/12/19 07:58:19;;;;;;;7.80;2.30;;;;;;;7.30;100.00;103450.50;5113439;28;20054;-43
2021/12/19 08:00:47;;;;;;;7.68;1.92;;;;;;;7.32;100.00;103444.75;5112735;28;20051;-35
2021/12/19 08:03:15;;;;;;;8.80;2.40;;;;;;;7.33;100.00;103449.22;5111606;28;20473;-40
2021/12/19 08:05:43;;;;;;;11.13;2.30;;;;;;;7.35;100.00;103447.94;5112632;28;20134;-30
2021/12/19 08:08:16;;;;;;;12.85;3.28;;;;;;;7.37;100.00;103447.72;5113387;28;20100;-34
2021/12/19 08:13:30;;;;;;;7.95;2.92;;;;;;;7.37;100.00;103439.41;5102438;28;20056;-33
2021/12/19 08:15:58;;;;;;;10.82;2.70;;;;;;;7.38;100.00;103435.56;5110843;28;20044;-37
2021/12/19 08:18:26;;;;;;;10.18;2.25;;;;;;;7.38;100.00;103439.19;5110681;28;20130;-37
2021/12/19 08:20:54;;;;;;;6.97;2.75;;;;;;;7.39;100.00;103435.34;5113026;28;20504;-29
2021/12/19 08:23:22;;;;;;;14.25;3.30;;;;;;;7.38;100.00;103439.19;5112642;28;20242;-30
2021/12/19 08:25:49;;;;;;;8.68;2.67;;;;;;;7.37;100.00;103437.47;5113011;28;20044;-34
2021/12/19 08:28:17;;;;;;;10.15;2.55;;;;;;;7.37;100.00;103434.69;5112631;28;20424;-38
2021/12/19 08:30:46;;;;;;;11.55;2.97;;;;;;;7.39;100.00;103440.03;5109483;28;20506;-35
2021/12/19 08:33:14;;;;;;;12.60;3.17;;;;;;;7.40;100.00;103433.38;5099034;28;20052;-35
2021/12/19 08:35:42;;;;;;;10.20;2.65;;;;;;;7.40;100.00;103441.72;5113153;28;20051;-38
2021/12/19 08:38:09;;;;;;;11.07;2.65;;;;;;;7.41;100.00;103435.09;5111810;28;20046;-34
2021/12/19 08:40:38;;;;;;;10.43;2.15;;;;;;;7.41;100.00;103430.41;5095420;28;20475;-32
2021/12/19 08:43:06;;;;;;;8.02;2.40;;;;;;;7.42;100.00;103436.81;5112451;28;20048;-36
2021/12/19 08:45:34;;;;;;;7.75;2.58;;;;;;;7.41;100.00;103438.72;5111846;28;20524;-36
2021/12/19 08:48:04;;;;;;;9.98;2.85;;;;;;;7.43;100.00;103438.53;5112298;28;20389;-34
2021/12/19 08:50:33;;;;;;;8.57;1.73;;;;;;;7.40;100.00;103436.16;5113043;28;20458;-33
2021/12/19 08:53:01;;;;;;;7.45;1.30;;;;;;;7.37;100.00;103434.69;5110969;28;20039;-30
2021/12/19 08:55:34;;;;;;;6.25;1.40;;;;;;;7.34;100.00;103437.91;5112897;28;20042;-35
2021/12/19 08:58:02;;;;;;;4.38;1.08;;;;;;;7.32;100.00;103444.75;5112423;28;20044;-36
2021/12/19 09:00:30;;;;;;;3.08;0.85;;;;;;;7.29;100.00;103436.81;5112902;28;20054;-38
2021/12/19 09:02:58;;;;;;;3.63;1.08;;;;;;;7.26;100.00;103438.09;5111962;28;20043;-35
2021/12/19 09:05:30;;;;;;;3.67;1.10;;;;;;;7.28;100.00;103435.13;5111590;28;20488;-37
2021/12/19 09:07:57;;;;;;;3.63;0.65;;;;;;;7.26;100.00;103433.41;5112162;28;20512;-37
2021/12/19 09:10:26;;;;;;;4.93;0.85;;;;;;;7.23;100.00;103431.06;5112231;28;20171;-39
2021/12/19 09:12:54;;;;;;;6.55;1.10;;;;;;;7.23;100.00;103442.16;5111474;28;20047;-40
2021/12/19 09:15:22;;;;;;;4.60;0.80;;;;;;;7.24;100.00;103432.75;5112276;28;20052;-42
2021/12/19 09:17:51;;;;;;;6.00;1.00;;;;;;;7.26;100.00;103438.97;5111773;28;20075;-37
2021/12/19 09:20:19;;;;;;;6.95;1.40;;;;;;;7.24;100.00;103431.91;5108711;28;20126;-30
2021/12/19 09:22:49;;;;;;;4.38;1.00;;;;;;;7.23;100.00;103433.84;5109369;28;20051;-37
2021/12/19 09:25:19;;;;;;;3.65;0.90;;;;;;;7.25;100.00;103436.41;5111650;28;20397;-36
2021/12/19 09:27:47;;;;;;;6.30;1.38;;;;;;;7.25;100.00;103426.16;5111050;28;20058;-31
2021/12/19 09:30:15;;;;;;;6.38;1.02;;;;;;;7.27;100.00;103425.94;5111930;27;20065;-40
2021/12/19 09:32:43;;;;;;;4.72;1.58;;;;;;;7.26;100.00;103416.75;5111835;28;20049;-34
2021/12/19 09:35:14;;;;;;;5.43;1.27;;;;;;;7.30;100.00;103421.88;5111248;28;20051;-38
2021/12/19 09:37:42;;;;;;;9.93;1.60;;;;;;;7.31;100.00;103418.03;5111722;28;20051;-36
2021/12/19 09:40:18;;;;;;;7.80;1.60;;;;;;;7.33;100.00;103410.34;5101888;28;20043;-36
2021/12/19 09:42:49;;;;;;;7.35;1.50;;;;;;;7.34;100.00;103414.81;5095251;28;20056;-34
2021/12/19 09:45:18;;;;;;;7.25;1.70;;;;;;;7.37;100.00;103425.50;5111353;28;20043;-38
2021/12/19 09:47:46;;;;;;;8.65;1.83;;;;;;;7.40;100.00;103419.50;5111053;28;20051;-33
2021/12/19 09:50:14;;;;;;;10.82;2.00;;;;;;;7.43;100.00;103416.28;5111019;28;20051;-30
2021/12/19 09:52:42;;;;;;;7.18;1.88;;;;;;;7.44;100.00;103418.84;5111246;28;20085;-40
2021/12/19 09:55:16;;;;;;;5.32;1.77;;;;;;;7.46;100.00;103421.44;5109079;28;20059;-35
2021/12/19 09:57:43;;;;;;;8.80;2.30;;;;;;;7.46;100.00;103411.16;5111730;28;20050;-36
2021/12/19 10:00:13;;;;;;;7.43;1.70;;;;;;;7.47;100.00;103418.44;5110262;28;20055;-36
2021/12/19 10:02:40;;;;;;;10.30;1.98;;;;;;;7.49;100.00;103412.66;5110790;28;20059;-34
2021/12/19 10:05:17;;;;;;;8.20;2.05;;;;;;;7.50;100.00;103420.78;5110415;28;20050;-34
2021/12/19 10:07:51;;;;;;;12.07;2.38;;;;;;;7.50;100.00;103408.81;5110341;28;20047;-33
2021/12/19 10:10:27;;;;;;;8.88;2.50;;;;;;;7.49;100.00;103418.22;5108991;28;20043;-36
2021/12/19 10:12:58;;;;;;;11.23;2.55;;;;;;;7.51;100.00;103410.53;5111363;28;20051;-34
2021/12/19 10:15:32;;;;;;;9.45;2.42;;;;;;;7.53;100.00;103411.16;5109915;28;20044;-36
2021/12/19 10:18:07;;;;;;;8.07;2.10;;;;;;;7.55;100.00;103403.47;5110932;28;20047;-33
2021/12/19 10:20:48;;;;;;;8.52;2.45;;;;;;;7.57;100.00;103393.84;5108473;28;20047;-35
2021/12/19 10:23:18;;;;;;;11.20;2.22;;;;;;;7.59;100.00;103388.09;5109280;28;20059;-39
2021/12/19 10:25:58;;;;;;;7.47;1.65;;;;;;;7.61;100.00;103394.25;5110573;28;20053;-37
2021/12/19 10:28:27;;;;;;;7.82;1.95;;;;;;;7.61;100.00;103392.31;5110814;28;20046;-36
2021/12/19 10:30:56;;;;;;;12.18;2.22;;;;;;;7.63;100.00;103383.78;5109957;28;20044;-34
2021/12/19 10:33:32;;;;;;;11.05;2.08;;;;;;;7.66;100.00;103377.78;5110576;28;20457;-35
2021/12/19 10:36:01;;;;;;;14.23;2.55;;;;;;;7.68;100.00;103375.63;5109144;28;20048;-34
2021/12/19 10:38:32;;;;;;;10.15;2.58;;;;;;;7.69;100.00;103374.56;5110192;28;20048;-40
2021/12/19 10:41:06;;;;;;;8.18;1.73;;;;;;;7.72;100.00;103373.28;5110211;28;20050;-31
2021/12/19 10:43:35;;;;;;;10.00;1.67;;;;;;;7.72;100.00;103374.13;5110105;28;20067;-35
2021/12/19 10:46:07;;;;;;;8.57;1.70;;;;;;;7.74;100.00;103369.22;5109472;28;20053;-39
2021/12/19 10:48:37;;;;;;;8.25;1.85;;;;;;;7.75;100.00;103370.94;5099628;28;20048;-35
2021/12/19 10:51:07;;;;;;;7.88;1.60;;;;;;;7.76;100.00;103369.84;5109503;28;20441;-39
2021/12/19 10:53:37;;;;;;;6.55;1.65;;;;;;;7.79;100.00;103368.56;5110006;28;20062;-32
2021/12/19 10:56:10;;;;;;;8.10;1.58;;;;;;;7.80;100.00;103359.97;5109846;28;20057;-37
2021/12/19 10:58:44;;;;;;;7.75;1.58;;;;;;;7.78;100.00;103352.97;5109548;28;20564;-33
2021/12/19 11:01:17;;;;;;;6.20;1.58;;;;;;;7.77;100.00;103351.25;5110360;28;20043;-31
2021/12/19 11:03:51;;;;;;;6.63;0.98;;;;;;;7.77;100.00;103349.31;5107440;28;20466;-36
2021/12/19 11:06:36;;;;;;;4.82;1.17;;;;;;;7.78;100.00;103351.03;5108535;28;20056;-37
2021/12/19 11:09:12;;;;;;;7.50;1.70;;;;;;;7.79;100.00;103349.97;5097288;28;20096;-34
2021/12/19 11:11:50;;;;;;;5.53;1.50;;;;;;;7.83;100.00;103345.66;5104298;28;20725;-38
2021/12/19 11:14:22;;;;;;;5.90;1.40;;;;;;;7.83;100.00;103339.22;5114566;28;20046;-34
2021/12/19 11:16:52;;;;;;;7.78;1.40;;;;;;;7.84;100.00;103338.16;5113643;28;20040;-41
2021/12/19 11:19:20;;;;;;;3.42;0.90;;;;;;;7.85;100.00;103337.94;5111569;28;20048;-33
2021/12/19 11:22:09;;;;;;;5.93;1.10;;;;;;;7.87;100.00;103330.25;5114096;28;20044;-36
2021/12/19 11:24:37;;;;;;;6.78;1.10;;;;;;;7.88;100.00;103333.88;5114350;28;20048;-35
2021/12/19 11:27:08;;;;;;;6.53;1.10;;;;;;;7.90;100.00;103328.94;5113495;28;20062;-37
2021/12/19 11:29:37;;;;;;;4.20;1.00;;;;;;;7.92;100.00;103335.16;5114066;28;20039;-37
2021/12/19 11:32:08;;;;;;;4.38;1.23;;;;;;;7.93;100.00;103326.59;5113844;28;20050;-35
2021/12/19 11:34:57;;;;;;;8.43;1.50;;;;;;;7.95;100.00;103321.66;5113246;28;20046;-38
2021/12/19 11:37:27;;;;;;;7.78;1.30;;;;;;;7.93;100.00;103323.81;5114034;28;20061;-36
2021/12/19 11:39:56;;;;;;;4.97;1.30;;;;;;;7.90;100.00;103321.47;5112898;28;20052;-31
2021/12/19 11:42:32;;;;;;;6.88;1.17;;;;;;;7.89;100.00;103316.97;5110917;28;20047;-37
2021/12/19 11:45:25;;;;;;;5.82;1.60;;;;;;;7.87;100.00;103312.72;5114304;28;20039;-34
2021/12/19 11:47:57;;;;;;;4.93;1.10;;;;;;;7.87;100.00;103308.00;5113059;28;20051;-37
2021/12/19 11:50:29;;;;;;;5.97;1.10;;;;;;;7.90;100.00;103307.56;5114005;28;20065;-32
2021/12/19 11:52:59;;;;;;;6.80;1.50;;;;;;;7.92;100.00;103305.41;5113042;28;20065;-40
2021/12/19 11:55:33;;;;;;;6.15;1.48;;;;;;;7.95;100.00;103304.97;5113120;28;20056;-33
2021/12/19 11:58:24;;;;;;;7.13;1.50;;;;;;;7.98;100.00;103302.84;5113860;28;20181;-32
2021/12/19 12:01:05;;;;;;;7.90;1.67;;;;;;;7.97;100.00;103296.41;5113260;28;20039;-37
2021/12/19 12:03:53;;;;;;;8.40;1.70;;;;;;;7.97;100.00;103293.63;5111976;28;20046;-40
2021/12/19 12:06:38;;;;;;;9.82;1.67;;;;;;;7.99;100.00;103294.28;5110830;28;20050;-36
2021/12/19 12:09:09;;;;;;;7.15;1.80;;;;;;;7.99;100.00;103279.50;5112591;28;20039;-36
2021/12/19 12:11:39;;;;;;;10.43;2.08;;;;;;;7.99;100.00;103285.06;5112292;28;20446;-38
2021/12/19 12:14:22;;;;;;;14.93;1.70;;;;;;;7.98;100.00;103273.09;5113069;28;20043;-31
2021/12/19 12:16:55;;;;;;;12.50;1.95;;;;;;;7.95;100.00;103265.19;5111614;28;20055;-43
2021/12/19 12:19:40;;;;;;;6.03;1.70;;;;;;;7.96;100.00;103269.69;5110840;28;20077;-33
2021/12/19 12:22:32;;;;;;;11.35;1.80;;;;;;;7.93;100.00;103259.00;5111484;28;20496;-37
2021/12/19 12:25:19;;;;;;;7.90;1.77;;;;;;;7.93;100.00;103245.97;5112768;28;20066;-35
2021/12/19 12:27:50;;;;;;;8.85;1.73;;;;;;;7.92;100.00;103249.81;5112871;28;20494;-35
2021/12/19 12:30:24;;;;;;;8.07;1.70;;;;;;;7.94;100.00;103252.38;5112302;28;20058;-36